Time;durP1;ratioP1;P1;durP2;ratioP2;P2;SDS_P1;SDS_P2;PMS_P1;PMS_P2;Temp;Humidity;BMP_temperature;BMP_pressure;BME280_temperature;BME280_humidity;BME280_pressure;Samples;Min_cycle;Max_cycle;Signal;HPM_P1;HPM_P2
2022/07/21 00:01:29;;;;;;;12.80;11.02;;;;;;;28.27;37.73;100405.28;5032378;27;96930;-76
2022/07/21 00:03:54;;;;;;;14.00;11.13;;;;;;;28.23;37.96;100385.03;5013732;27;101011;-75
2022/07/21 00:06:20;;;;;;;12.50;10.80;;;;;;;28.16;38.16;100391.09;5036656;27;100759;-75
2022/07/21 00:08:45;;;;;;;12.25;11.07;;;;;;;28.07;38.21;100385.81;5067640;27;97477;-76
2022/07/21 00:11:11;;;;;;;12.15;10.75;;;;;;;28.05;38.43;100380.59;5036781;27;97146;-75
2022/07/21 00:13:37;;;;;;;12.00;10.80;;;;;;;28.12;38.01;100399.69;5044983;27;97444;-75
2022/07/21 00:16:03;;;;;;;12.38;11.25;;;;;;;28.04;38.17;100396.94;5037166;27;101228;-75
2022/07/21 00:18:28;;;;;;;11.68;10.68;;;;;;;27.96;38.59;100392.38;5030096;27;97232;-75
2022/07/21 00:20:55;;;;;;;11.98;10.98;;;;;;;27.99;38.44;100390.19;5038867;27;96958;-75
2022/07/21 00:23:24;;;;;;;12.30;11.02;;;;;;;27.93;38.77;100384.63;5038782;27;97462;-75
2022/07/21 00:25:51;;;;;;;13.32;11.93;;;;;;;27.88;38.72;100384.25;5014875;27;100025;-75
2022/07/21 00:28:16;;;;;;;11.50;10.43;;;;;;;27.79;38.90;100393.31;5049236;27;97408;-75
2022/07/21 00:30:42;;;;;;;12.30;11.07;;;;;;;27.80;39.02;100385.06;5047016;27;97290;-76
2022/07/21 00:33:07;;;;;;;11.88;10.70;;;;;;;27.76;39.01;100391.75;5042695;27;98027;-74
2022/07/21 00:35:34;;;;;;;12.45;10.52;;;;;;;27.72;38.70;100390.38;5043003;27;97983;-75
2022/07/21 00:37:59;;;;;;;11.73;10.73;;;;;;;27.63;39.09;100383.25;5071777;27;97338;-76
2022/07/21 00:40:25;;;;;;;12.25;11.05;;;;;;;27.65;39.10;100379.41;5020769;27;96870;-76
2022/07/21 00:42:51;;;;;;;15.68;10.82;;;;;;;27.49;39.57;100372.09;5030562;27;99547;-75
2022/07/21 00:45:16;;;;;;;11.55;10.35;;;;;;;27.54;39.65;100379.69;5032574;27;97514;-76
2022/07/21 00:47:42;;;;;;;12.43;11.13;;;;;;;27.51;39.30;100383.53;5013366;28;96777;-73
2022/07/21 00:50:13;;;;;;;11.50;10.48;;;;;;;27.48;39.60;100381.16;5031854;27;96827;-75
2022/07/21 00:52:39;;;;;;;14.57;10.65;;;;;;;27.36;39.71;100360.06;5027358;28;98103;-76
2022/07/21 00:55:06;;;;;;;11.57;10.68;;;;;;;27.34;39.75;100370.97;5009188;28;97378;-75
2022/07/21 00:57:31;;;;;;;12.80;10.73;;;;;;;27.40;39.69;100380.28;5008898;28;97403;-75
2022/07/21 00:59:57;;;;;;;12.07;11.00;;;;;;;27.39;39.70;100384.00;4998567;28;97384;-75
2022/07/21 01:02:22;;;;;;;12.18;10.98;;;;;;;27.33;39.98;100390.03;5006989;28;100932;-75
2022/07/21 01:04:48;;;;;;;11.80;10.80;;;;;;;27.34;40.03;100391.69;5029495;28;98519;-75
2022/07/21 01:07:15;;;;;;;13.80;11.38;;;;;;;27.30;40.09;100380.41;5013378;28;97209;-75
2022/07/21 01:09:41;;;;;;;12.32;10.95;;;;;;;27.29;40.18;100379.56;5011009;28;96861;-75
2022/07/21 01:12:07;;;;;;;11.68;10.68;;;;;;;27.29;40.23;100393.03;5009343;28;101106;-75
2022/07/21 01:14:33;;;;;;;12.40;10.65;;;;;;;27.21;40.53;100389.44;5010117;28;101423;-75
2022/07/21 01:17:00;;;;;;;12.82;11.45;;;;;;;27.25;40.33;100396.19;5027998;28;97216;-75
2022/07/21 01:19:26;;;;;;;14.45;11.50;;;;;;;27.01;40.71;100383.38;5010259;28;96885;-75
2022/07/21 01:21:52;;;;;;;14.60;11.43;;;;;;;27.02;41.02;100394.00;5002232;28;101691;-76
2022/07/21 01:24:17;;;;;;;12.90;10.80;;;;;;;27.00;40.88;100396.00;5012060;28;101130;-75
2022/07/21 01:26:46;;;;;;;13.02;11.82;;;;;;;27.01;40.94;100397.69;4992901;28;96852;-76
2022/07/21 01:29:11;;;;;;;11.98;10.65;;;;;;;27.01;40.85;100399.53;4997052;28;96892;-75
2022/07/21 01:31:41;;;;;;;12.40;11.02;;;;;;;26.99;40.98;100398.84;5030915;27;97379;-76
2022/07/21 01:34:08;;;;;;;12.43;11.13;;;;;;;26.91;41.03;100401.44;5033170;28;98001;-75
2022/07/21 01:36:33;;;;;;;13.52;11.85;;;;;;;26.79;41.31;100396.34;5013182;28;97415;-76
2022/07/21 01:41:43;;;;;;;11.20;10.20;;;;;;;26.80;41.83;100424.09;5006654;27;101479;-75
2022/07/21 01:44:10;;;;;;;13.52;12.27;;;;;;;26.72;42.03;100426.72;5033870;27;101704;-76
2022/07/21 01:46:38;;;;;;;12.65;11.40;;;;;;;26.72;41.85;100422.19;5043961;27;96786;-76
2022/07/21 01:49:04;;;;;;;12.63;11.52;;;;;;;26.76;41.74;100412.81;5055359;27;97287;-75
2022/07/21 01:51:30;;;;;;;12.00;11.02;;;;;;;26.69;41.75;100406.34;5036103;27;97476;-75
2022/07/21 01:53:56;;;;;;;11.88;10.82;;;;;;;26.54;42.38;100408.72;5018367;27;100202;-75
2022/07/21 01:56:23;;;;;;;14.55;10.75;;;;;;;26.58;42.30;100406.56;5057209;27;97388;-75
2022/07/21 01:58:50;;;;;;;13.15;11.27;;;;;;;26.48;42.31;100400.38;5057293;27;97175;-75
2022/07/21 02:01:16;;;;;;;16.08;11.38;;;;;;;26.31;42.55;100389.44;5036844;27;98575;-75
2022/07/21 02:03:43;;;;;;;12.65;11.38;;;;;;;26.32;43.02;100399.19;5042857;27;97948;-75
2022/07/21 02:06:08;;;;;;;15.57;12.35;;;;;;;26.30;42.55;100397.69;5054657;27;97982;-76
2022/07/21 02:08:34;;;;;;;12.57;11.48;;;;;;;26.23;42.76;100380.44;5019552;27;97198;-75
2022/07/21 02:10:59;;;;;;;12.60;11.60;;;;;;;26.28;42.82;100394.28;5045591;27;101350;-75
2022/07/21 02:13:25;;;;;;;15.73;11.40;;;;;;;26.25;42.75;100398.13;5020997;27;101285;-75
2022/07/21 02:15:51;;;;;;;12.23;11.13;;;;;;;26.13;42.97;100378.66;5075169;27;96741;-75
2022/07/21 02:18:18;;;;;;;13.55;12.23;;;;;;;26.30;42.51;100395.84;5022974;27;96831;-75
2022/07/21 02:20:44;;;;;;;15.68;12.30;;;;;;;26.09;43.27;100385.38;5036559;27;98069;-75
2022/07/21 02:23:11;;;;;;;13.32;11.63;;;;;;;26.00;43.10;100377.31;5032153;27;101461;-75
2022/07/21 02:25:36;;;;;;;15.80;11.70;;;;;;;26.00;43.82;100398.84;5036059;27;96871;-75
2022/07/21 02:28:02;;;;;;;12.55;11.23;;;;;;;25.96;43.57;100380.31;5045671;27;97495;-75
2022/07/21 02:30:27;;;;;;;12.52;11.23;;;;;;;25.94;43.37;100373.41;5038336;27;101984;-75
2022/07/21 02:32:53;;;;;;;12.80;11.57;;;;;;;25.94;43.38;100376.94;5034670;27;101400;-75
2022/07/21 02:35:19;;;;;;;12.25;11.13;;;;;;;25.92;43.74;100370.03;5069304;27;96661;-73
2022/07/21 02:37:44;;;;;;;14.43;12.10;;;;;;;25.92;43.57;100378.09;5035926;27;97105;-75
2022/07/21 02:40:10;;;;;;;13.40;12.10;;;;;;;25.97;43.25;100386.53;5037549;27;97990;-75
2022/07/21 02:42:37;;;;;;;16.33;12.82;;;;;;;25.93;43.53;100386.00;5066692;27;97307;-75
2022/07/21 02:45:04;;;;;;;12.82;11.50;;;;;;;25.82;44.07;100393.38;5046377;27;97072;-75
2022/07/21 02:47:30;;;;;;;13.77;12.43;;;;;;;25.75;43.73;100387.78;5039937;27;97714;-75
2022/07/21 02:49:55;;;;;;;16.52;12.25;;;;;;;25.79;43.93;100391.00;5035215;27;101890;-75
2022/07/21 02:52:21;;;;;;;12.90;11.77;;;;;;;25.78;43.79;100384.78;5032670;27;100791;-75
2022/07/21 02:54:46;;;;;;;13.77;11.55;;;;;;;25.75;43.63;100377.84;5035879;27;97143;-77
2022/07/21 02:57:12;;;;;;;17.55;12.80;;;;;;;25.74;43.86;100386.94;5046229;27;97987;-75
2022/07/21 02:59:37;;;;;;;14.15;12.23;;;;;;;25.54;44.50;100371.88;5035254;27;97593;-75
2022/07/21 03:02:03;;;;;;;14.10;12.38;;;;;;;25.50;44.27;100376.69;5017439;27;100763;-73
2022/07/21 03:04:28;;;;;;;13.95;12.45;;;;;;;25.50;44.17;100379.38;5027946;27;97190;-73
2022/07/21 03:06:54;;;;;;;14.27;12.80;;;;;;;25.43;44.46;100383.66;5055597;27;96902;-73
2022/07/21 03:09:19;;;;;;;14.48;12.88;;;;;;;25.32;44.74;100388.34;5038727;27;101165;-75
2022/07/21 03:11:44;;;;;;;13.43;12.07;;;;;;;25.41;44.68;100384.78;5055494;27;98662;-76
2022/07/21 03:14:10;;;;;;;14.10;12.57;;;;;;;25.34;44.77;100384.53;5033226;27;96929;-75
2022/07/21 03:16:35;;;;;;;16.40;13.18;;;;;;;25.23;44.88;100347.09;5048853;27;97465;-76
2022/07/21 03:19:01;;;;;;;14.88;12.75;;;;;;;25.23;45.16;100379.31;5034243;27;100161;-73
2022/07/21 03:21:26;;;;;;;13.40;11.90;;;;;;;25.21;45.08;100375.94;5047062;27;97491;-73
2022/07/21 03:23:52;;;;;;;14.82;12.65;;;;;;;24.94;45.36;100357.88;5035195;27;96767;-73
2022/07/21 03:26:17;;;;;;;14.38;13.00;;;;;;;25.02;45.32;100369.59;5063775;27;96811;-76
2022/07/21 03:28:43;;;;;;;15.15;11.75;;;;;;;25.02;45.56;100377.66;5050578;27;98602;-75
2022/07/21 03:31:09;;;;;;;13.63;12.23;;;;;;;24.99;45.49;100366.34;5021972;27;99017;-73
2022/07/21 03:33:34;;;;;;;15.25;12.15;;;;;;;25.06;45.50;100375.50;5032189;27;96956;-73
2022/07/21 03:36:00;;;;;;;14.68;12.50;;;;;;;25.16;45.43;100372.81;5034745;27;97049;-73
2022/07/21 03:38:26;;;;;;;14.57;12.63;;;;;;;25.19;45.31;100380.59;5046505;27;98624;-75
2022/07/21 03:40:52;;;;;;;21.65;13.30;;;;;;;25.16;45.49;100378.19;5037287;27;101042;-76
2022/07/21 03:43:18;;;;;;;34.05;13.07;;;;;;;25.15;45.28;100382.72;5033754;27;97336;-75
2022/07/21 03:45:44;;;;;;;38.50;13.30;;;;;;;25.07;45.62;100378.06;5016737;27;96886;-75
2022/07/21 03:48:10;;;;;;;23.55;13.15;;;;;;;25.05;45.60;100377.34;5037506;27;97332;-75
2022/07/21 03:50:38;;;;;;;17.02;13.00;;;;;;;25.13;45.57;100395.41;5020834;27;101893;-75
2022/07/21 03:53:04;;;;;;;30.20;13.88;;;;;;;25.00;45.59;100374.25;5034249;27;96988;-75
2022/07/21 03:55:30;;;;;;;17.70;13.68;;;;;;;25.11;45.73;100394.72;5038496;27;97330;-75
2022/07/21 03:57:57;;;;;;;18.05;14.65;;;;;;;25.17;45.54;100396.03;5006593;27;101326;-75
2022/07/21 04:00:35;;;;;;;14.75;13.25;;;;;;;25.11;45.83;100399.25;5021450;27;100991;-75
2022/07/21 04:03:01;;;;;;;16.08;13.43;;;;;;;25.01;46.03;100402.78;5004299;27;97206;-75
2022/07/21 04:05:27;;;;;;;18.20;13.45;;;;;;;25.02;46.10;100400.97;5034660;27;97081;-75
2022/07/21 04:07:54;;;;;;;14.75;12.85;;;;;;;25.06;46.15;100419.31;5028961;27;98860;-75
2022/07/21 04:10:24;;;;;;;14.95;13.43;;;;;;;25.00;45.98;100400.25;5054670;27;98413;-75
2022/07/21 04:12:49;;;;;;;19.17;14.40;;;;;;;25.00;46.13;100398.41;5034370;27;96818;-76
2022/07/21 04:15:15;;;;;;;19.40;14.20;;;;;;;25.17;46.08;100410.28;5034544;27;97132;-75
2022/07/21 04:17:41;;;;;;;16.05;13.52;;;;;;;25.04;46.22;100413.22;5034260;27;98451;-75
2022/07/21 04:20:08;;;;;;;14.77;13.38;;;;;;;25.02;46.34;100412.56;5028347;27;100670;-75
2022/07/21 04:22:33;;;;;;;16.35;13.38;;;;;;;25.03;46.39;100414.25;5054172;27;96745;-75
2022/07/21 04:25:02;;;;;;;16.05;13.73;;;;;;;25.00;46.51;100419.06;5054628;27;97131;-75
2022/07/21 04:27:27;;;;;;;16.90;15.00;;;;;;;24.96;46.47;100407.75;5033482;27;100914;-74
2022/07/21 04:29:53;;;;;;;18.55;14.30;;;;;;;24.83;47.03;100417.94;5033334;27;101261;-75
2022/07/21 04:32:19;;;;;;;16.25;14.05;;;;;;;24.85;47.11;100424.00;5053933;27;97055;-74
2022/07/21 04:34:44;;;;;;;15.95;13.85;;;;;;;25.01;46.86;100420.72;5053859;27;97305;-75
2022/07/21 04:37:10;;;;;;;19.67;14.02;;;;;;;25.14;46.45;100424.00;5029635;27;101284;-75
2022/07/21 04:39:35;;;;;;;20.52;15.02;;;;;;;25.19;46.59;100418.19;5034083;27;101045;-75
2022/07/21 04:42:01;;;;;;;23.30;15.65;;;;;;;25.10;47.01;100424.41;5029089;27;97041;-74
2022/07/21 04:44:26;;;;;;;20.00;14.68;;;;;;;25.01;47.11;100421.56;5020949;27;97475;-75
2022/07/21 04:46:52;;;;;;;20.58;14.65;;;;;;;25.18;46.84;100427.25;5033118;27;101440;-76
2022/07/21 04:49:17;;;;;;;16.15;13.93;;;;;;;25.21;46.68;100410.84;5034656;27;101892;-75
2022/07/21 04:51:43;;;;;;;25.42;15.32;;;;;;;25.41;46.38;100430.47;5037566;27;97905;-75
2022/07/21 04:54:08;;;;;;;17.60;13.70;;;;;;;25.46;46.40;100422.81;5034646;27;97185;-75
2022/07/21 04:56:34;;;;;;;17.48;15.05;;;;;;;25.49;46.00;100422.53;5053614;27;97468;-74
2022/07/21 04:59:01;;;;;;;20.77;15.65;;;;;;;25.51;45.98;100432.13;5037037;27;97393;-75
2022/07/21 05:01:26;;;;;;;20.80;15.48;;;;;;;25.44;45.86;100427.47;5033208;27;97052;-75
2022/07/21 05:03:52;;;;;;;21.13;16.13;;;;;;;25.39;46.15;100435.13;5041699;27;97280;-76
2022/07/21 05:06:18;;;;;;;22.13;14.85;;;;;;;25.40;46.08;100434.16;5046502;27;97993;-75
2022/07/21 05:08:43;;;;;;;19.17;15.10;;;;;;;25.49;46.09;100430.59;5035684;27;101737;-75
2022/07/21 05:11:09;;;;;;;19.17;15.63;;;;;;;25.63;46.01;100431.97;5049438;27;96834;-77
2022/07/21 05:13:34;;;;;;;21.70;14.55;;;;;;;25.75;45.58;100417.34;5039325;27;97055;-75
2022/07/21 05:16:00;;;;;;;20.05;15.38;;;;;;;25.79;45.58;100425.94;5040871;27;98200;-75
2022/07/21 05:18:26;;;;;;;23.50;14.70;;;;;;;25.78;45.56;100424.25;5030584;27;101339;-75
2022/07/21 05:20:52;;;;;;;16.77;15.07;;;;;;;25.78;45.08;100418.88;5014334;27;97144;-77
2022/07/21 05:23:17;;;;;;;25.30;15.38;;;;;;;25.66;45.57;100407.47;5047088;27;96972;-75
2022/07/21 05:25:43;;;;;;;19.35;14.40;;;;;;;25.68;45.43;100413.53;5041311;27;101291;-75
2022/07/21 05:28:08;;;;;;;20.48;15.57;;;;;;;25.93;45.54;100420.13;5030676;27;100643;-76
2022/07/21 05:30:35;;;;;;;18.27;14.60;;;;;;;26.13;45.38;100412.78;5048223;27;96716;-75
2022/07/21 05:33:00;;;;;;;26.50;16.20;;;;;;;26.28;44.47;100424.72;5041747;27;96890;-75
2022/07/21 05:35:26;;;;;;;19.95;14.90;;;;;;;26.29;45.02;100425.56;5034427;27;101411;-75
2022/07/21 05:37:51;;;;;;;19.02;16.25;;;;;;;26.45;44.82;100420.38;5015977;27;101366;-75
2022/07/21 05:40:17;;;;;;;16.52;14.60;;;;;;;26.55;44.73;100401.47;5021408;27;96946;-75
2022/07/21 05:42:42;;;;;;;20.27;15.18;;;;;;;26.92;43.70;100436.31;5036750;27;96954;-75
2022/07/21 05:45:08;;;;;;;19.55;15.23;;;;;;;27.17;43.26;100423.94;5016558;27;97916;-75
2022/07/21 05:47:34;;;;;;;16.00;14.40;;;;;;;27.35;43.16;100425.75;5023572;27;101238;-76
2022/07/21 05:49:59;;;;;;;20.67;14.75;;;;;;;27.59;42.58;100417.78;5001063;27;96911;-76
2022/07/21 05:52:25;;;;;;;18.35;15.52;;;;;;;27.92;41.70;100401.78;5032388;27;97265;-75
2022/07/21 05:54:51;;;;;;;18.00;14.75;;;;;;;28.16;41.14;100410.00;5030333;27;97608;-75
2022/07/21 05:57:17;;;;;;;18.60;14.35;;;;;;;27.94;41.55;100405.19;4997360;27;101811;-75
2022/07/21 05:59:44;;;;;;;16.85;14.77;;;;;;;28.10;41.38;100409.78;5031794;27;97341;-75
2022/07/21 06:02:09;;;;;;;16.77;14.82;;;;;;;28.14;40.96;100398.50;5030920;27;97171;-75
2022/07/21 06:04:35;;;;;;;18.98;14.02;;;;;;;28.60;40.32;100407.06;5015375;27;101408;-75
2022/07/21 06:07:00;;;;;;;19.52;14.48;;;;;;;28.70;40.42;100409.59;4999872;27;101305;-75
2022/07/21 06:09:26;;;;;;;21.02;14.50;;;;;;;28.81;39.85;100411.97;5016320;27;97322;-75
2022/07/21 06:11:51;;;;;;;16.13;14.48;;;;;;;29.03;39.51;100406.91;5029473;27;97236;-76
2022/07/21 06:14:17;;;;;;;15.70;14.02;;;;;;;29.54;39.38;100410.22;5032928;27;97849;-75
2022/07/21 06:16:42;;;;;;;17.70;13.98;;;;;;;30.13;38.39;100413.38;5035067;27;97745;-75
2022/07/21 06:19:07;;;;;;;15.02;13.52;;;;;;;30.74;37.65;100410.81;5035171;27;96799;-76
2022/07/21 06:21:33;;;;;;;18.65;13.40;;;;;;;31.43;36.52;100404.50;5035429;27;97445;-75
2022/07/21 06:23:59;;;;;;;16.85;13.30;;;;;;;31.91;35.63;100405.84;5036864;27;101276;-76
2022/07/21 06:26:25;;;;;;;16.73;13.07;;;;;;;32.45;34.91;100410.03;5034968;27;101025;-75
2022/07/21 06:28:51;;;;;;;18.10;14.23;;;;;;;32.98;34.14;100409.69;5034070;27;97355;-75
2022/07/21 06:31:17;;;;;;;15.32;13.75;;;;;;;33.29;33.44;100407.44;5025892;27;97171;-75
2022/07/21 06:33:42;;;;;;;21.15;14.82;;;;;;;33.46;33.35;100402.56;5050293;27;97374;-76
2022/07/21 06:36:08;;;;;;;19.98;13.90;;;;;;;33.71;33.08;100407.53;5017297;27;101121;-76
2022/07/21 06:38:34;;;;;;;16.77;13.85;;;;;;;34.09;32.43;100397.03;5019528;27;96694;-75
2022/07/21 06:40:59;;;;;;;16.38;13.77;;;;;;;34.35;32.22;100401.72;5041857;27;97122;-75
2022/07/21 06:43:25;;;;;;;17.27;12.90;;;;;;;34.63;31.73;100398.88;5044374;27;98493;-77
2022/07/21 06:45:51;;;;;;;18.42;14.55;;;;;;;34.84;31.08;100403.28;5013041;27;101252;-79
2022/07/21 06:48:16;;;;;;;20.25;14.85;;;;;;;35.08;30.66;100403.72;5011334;27;97309;-78
2022/07/21 06:50:42;;;;;;;16.05;13.20;;;;;;;35.49;30.54;100414.41;5054800;27;97939;-78
2022/07/21 06:53:08;;;;;;;14.45;12.95;;;;;;;35.63;30.18;100408.91;5053035;27;100710;-78
2022/07/21 06:55:34;;;;;;;13.20;11.95;;;;;;;35.84;29.97;100408.66;5021258;27;100911;-77
2022/07/21 06:58:15;;;;;;;13.55;12.18;;;;;;;36.29;29.28;100407.84;5043059;27;97947;-78
2022/07/21 07:00:41;;;;;;;12.63;11.30;;;;;;;36.74;28.68;100397.66;5047068;27;97253;-78
2022/07/21 07:03:07;;;;;;;16.38;12.80;;;;;;;37.17;27.87;100400.47;5015877;27;101457;-77
2022/07/21 07:05:33;;;;;;;13.50;12.20;;;;;;;37.29;28.02;100400.56;5056785;27;97403;-79
2022/07/21 07:07:59;;;;;;;13.27;12.10;;;;;;;37.70;27.73;100381.84;5048773;27;98234;-80
2022/07/21 07:10:25;;;;;;;16.10;12.30;;;;;;;38.12;26.59;100371.00;5039995;27;96894;-78
2022/07/21 07:12:50;;;;;;;17.00;12.90;;;;;;;38.34;26.34;100388.63;5032867;27;101441;-78
2022/07/21 07:15:16;;;;;;;13.63;12.52;;;;;;;38.56;26.38;100396.31;5048927;27;101857;-78
2022/07/21 07:17:41;;;;;;;13.68;12.20;;;;;;;38.98;26.15;100391.63;5031826;27;97819;-78
2022/07/21 07:20:08;;;;;;;17.17;12.85;;;;;;;39.30;25.28;100392.16;5046999;27;97332;-77
2022/07/21 07:22:34;;;;;;;15.25;11.90;;;;;;;38.92;25.20;100384.34;5015815;27;101613;-79
2022/07/21 07:24:59;;;;;;;13.75;12.52;;;;;;;39.11;25.73;100390.56;5015069;27;101287;-78
2022/07/21 07:27:25;;;;;;;13.30;11.90;;;;;;;38.84;25.08;100376.47;5029522;27;97562;-77
2022/07/21 07:29:50;;;;;;;15.50;11.77;;;;;;;39.09;25.08;100381.72;5042264;27;97198;-76
2022/07/21 07:32:16;;;;;;;12.90;11.60;;;;;;;39.31;25.03;100374.59;5030415;27;100655;-78
2022/07/21 07:34:41;;;;;;;15.15;11.82;;;;;;;39.38;25.01;100371.72;5037304;27;101464;-78
2022/07/21 07:37:07;;;;;;;13.13;11.95;;;;;;;39.71;25.02;100370.22;5040611;27;97001;-77
2022/07/21 07:39:32;;;;;;;15.07;13.63;;;;;;;40.26;24.79;100377.94;5037961;27;96943;-77
2022/07/21 07:41:58;;;;;;;17.60;12.70;;;;;;;40.46;24.31;100381.03;5040512;27;97978;-78
2022/07/21 07:44:23;;;;;;;14.57;13.05;;;;;;;40.95;23.47;100375.00;5034504;27;101105;-78
2022/07/21 07:46:49;;;;;;;14.80;13.15;;;;;;;40.91;23.72;100376.59;5027527;27;97334;-78
2022/07/21 07:49:14;;;;;;;14.15;12.23;;;;;;;41.18;23.01;100380.34;5012573;27;97310;-78
2022/07/21 07:51:40;;;;;;;16.02;11.80;;;;;;;41.28;23.33;100373.31;5052176;27;97972;-78
2022/07/21 07:54:06;;;;;;;13.15;11.85;;;;;;;41.43;23.17;100367.19;5049279;27;97439;-78
2022/07/21 07:56:32;;;;;;;11.95;10.85;;;;;;;41.67;22.69;100368.63;5031637;27;97211;-78
2022/07/21 07:58:57;;;;;;;14.23;11.52;;;;;;;41.95;22.15;100359.34;5036877;27;97360;-79
2022/07/21 08:01:23;;;;;;;12.82;11.60;;;;;;;42.32;21.68;100363.31;5030906;27;101540;-78
2022/07/21 08:03:48;;;;;;;14.02;12.45;;;;;;;42.27;21.89;100355.81;5007938;27;102019;-79
2022/07/21 08:06:23;;;;;;;14.18;11.60;;;;;;;42.21;21.51;100348.56;5064206;27;97207;-81
2022/07/21 08:08:51;;;;;;;12.40;11.10;;;;;;;42.16;21.47;100356.81;5021990;27;96820;-82
2022/07/21 08:11:17;;;;;;;13.85;12.55;;;;;;;42.44;21.54;100353.75;5034325;27;97913;-78
2022/07/21 08:13:46;;;;;;;15.85;11.05;;;;;;;42.86;21.42;100350.28;5032566;27;101055;-78
2022/07/21 08:16:17;;;;;;;12.45;11.15;;;;;;;43.12;19.97;100344.91;5047523;27;97081;-78
2022/07/21 08:18:44;;;;;;;14.43;10.07;;;;;;;43.02;20.44;100342.91;5030414;27;97377;-78
2022/07/21 08:21:10;;;;;;;10.93;10.10;;;;;;;42.81;20.22;100325.41;5031611;27;100824;-78
2022/07/21 08:23:36;;;;;;;11.68;10.63;;;;;;;43.13;19.85;100338.28;5017086;27;100846;-78
2022/07/21 08:26:01;;;;;;;11.88;10.85;;;;;;;43.19;19.72;100340.00;5046248;27;97451;-79
2022/07/21 08:28:27;;;;;;;10.95;9.85;;;;;;;43.63;19.17;100336.91;5017269;27;97572;-79
2022/07/21 08:30:52;;;;;;;10.85;9.95;;;;;;;43.58;18.63;100332.22;5046113;27;101150;-78
2022/07/21 08:33:18;;;;;;;10.98;10.10;;;;;;;43.74;18.69;100340.53;5051072;27;98169;-78
2022/07/21 08:35:44;;;;;;;13.00;10.48;;;;;;;43.46;18.60;100337.06;5035205;27;96933;-80
2022/07/21 08:38:11;;;;;;;17.52;10.95;;;;;;;42.38;19.83;100334.69;5062189;27;97310;-79
2022/07/21 08:40:42;;;;;;;11.05;9.98;;;;;;;42.67;19.45;100337.94;5039251;27;97632;-79
2022/07/21 08:43:14;;;;;;;11.85;10.65;;;;;;;42.59;19.87;100330.16;5036317;27;101530;-79
2022/07/21 08:45:41;;;;;;;11.13;10.20;;;;;;;42.97;19.03;100320.81;5046753;27;97120;-79
2022/07/21 08:48:07;;;;;;;11.38;10.25;;;;;;;42.73;18.89;100323.97;5030510;27;97108;-78
2022/07/21 08:50:39;;;;;;;10.70;9.90;;;;;;;42.95;18.91;100334.03;5043636;27;97369;-78
2022/07/21 08:53:04;;;;;;;11.98;10.63;;;;;;;43.26;18.66;100326.81;5033209;27;101273;-79
2022/07/21 08:55:31;;;;;;;10.48;9.65;;;;;;;43.22;18.49;100322.91;5044488;27;97065;-79
2022/07/21 08:57:57;;;;;;;12.82;9.75;;;;;;;43.07;18.63;100329.13;5043090;27;97456;-78
2022/07/21 09:00:22;;;;;;;10.95;9.00;;;;;;;43.22;17.88;100333.94;5023820;27;101639;-79
2022/07/21 09:02:48;;;;;;;11.13;9.30;;;;;;;42.89;18.32;100315.78;5032980;27;98480;-78
2022/07/21 09:05:13;;;;;;;11.45;10.35;;;;;;;42.97;18.48;100315.28;5048490;27;97243;-78
2022/07/21 09:07:50;;;;;;;10.25;9.20;;;;;;;42.95;17.77;100301.75;5031635;27;97577;-79
2022/07/21 09:10:21;;;;;;;9.93;9.23;;;;;;;42.71;17.93;100317.03;5059220;27;97507;-78
2022/07/21 09:12:58;;;;;;;9.70;8.90;;;;;;;42.54;18.30;100314.41;5031592;27;101021;-78
2022/07/21 09:15:25;;;;;;;9.68;8.85;;;;;;;42.11;18.64;100313.47;5021293;27;97143;-78
2022/07/21 09:18:14;;;;;;;9.85;9.05;;;;;;;41.60;18.60;100310.97;5026339;27;97472;-79
2022/07/21 09:20:47;;;;;;;10.95;8.93;;;;;;;40.83;19.41;100314.56;5045703;27;98081;-78
2022/07/21 09:23:15;;;;;;;12.02;9.35;;;;;;;40.37;19.49;100305.56;5034419;27;100857;-78
2022/07/21 09:25:52;;;;;;;9.33;8.63;;;;;;;39.95;20.34;100289.41;5023753;27;97770;-78
2022/07/21 09:28:23;;;;;;;9.43;8.60;;;;;;;39.67;20.64;100311.38;5034508;27;97655;-78
2022/07/21 09:31:05;;;;;;;9.48;8.68;;;;;;;39.48;20.92;100297.00;5018478;27;101538;-79
2022/07/21 09:33:44;;;;;;;9.13;8.27;;;;;;;39.13;21.13;100297.88;5050765;27;98223;-78
2022/07/21 09:36:11;;;;;;;12.00;8.40;;;;;;;38.91;21.53;100286.69;5052020;27;96830;-78
2022/07/21 09:38:44;;;;;;;10.70;9.68;;;;;;;38.48;20.95;100288.66;5031073;27;97257;-78
2022/07/21 09:41:20;;;;;;;10.23;9.30;;;;;;;38.37;21.08;100270.28;5043974;27;101042;-78
2022/07/21 09:43:47;;;;;;;10.57;8.90;;;;;;;38.14;21.22;100270.22;5024273;27;97461;-78
2022/07/21 09:46:13;;;;;;;13.10;9.20;;;;;;;38.18;21.43;100287.88;5035816;27;97169;-78
2022/07/21 09:48:40;;;;;;;9.38;8.52;;;;;;;37.80;21.81;100262.47;5027509;27;99270;-77
2022/07/21 09:51:20;;;;;;;9.40;8.52;;;;;;;37.54;21.74;100277.38;5043071;27;97740;-78
2022/07/21 09:53:51;;;;;;;9.05;8.15;;;;;;;37.45;22.55;100261.47;5033344;27;100764;-78
2022/07/21 09:56:18;;;;;;;9.90;8.85;;;;;;;37.48;21.59;100270.06;5035695;27;97307;-78
2022/07/21 09:58:46;;;;;;;9.13;8.40;;;;;;;37.08;21.87;100265.03;5036392;27;97151;-78
2022/07/21 10:01:12;;;;;;;10.10;8.60;;;;;;;37.14;22.66;100285.19;5042966;27;101269;-78
2022/07/21 10:03:38;;;;;;;9.20;8.45;;;;;;;36.90;22.55;100281.41;5034890;27;99870;-78
2022/07/21 10:06:05;;;;;;;9.55;8.48;;;;;;;36.96;22.54;100277.78;5049847;27;96839;-78
2022/07/21 10:08:32;;;;;;;9.77;8.82;;;;;;;36.84;22.25;100263.19;5041196;27;97608;-78
2022/07/21 10:10:58;;;;;;;8.57;7.90;;;;;;;36.93;22.63;100272.75;5034103;27;97541;-79
2022/07/21 10:13:24;;;;;;;9.40;8.60;;;;;;;36.96;22.85;100276.94;5047820;27;98325;-78
2022/07/21 10:15:50;;;;;;;9.48;8.70;;;;;;;36.74;22.86;100271.06;5049592;27;96839;-78
2022/07/21 10:18:17;;;;;;;12.38;8.70;;;;;;;36.52;23.09;100259.69;5037715;27;96883;-79
2022/07/21 10:20:47;;;;;;;9.60;8.70;;;;;;;36.54;23.30;100268.50;5035684;27;101101;-76
2022/07/21 10:23:18;;;;;;;9.85;8.77;;;;;;;36.36;23.15;100247.41;5032960;27;99104;-77
2022/07/21 10:25:45;;;;;;;9.77;8.88;;;;;;;36.35;23.48;100271.16;5044663;27;96859;-77
2022/07/21 10:28:14;;;;;;;8.50;7.72;;;;;;;36.30;23.83;100265.53;5055758;27;96908;-76
2022/07/21 10:30:51;;;;;;;9.20;8.35;;;;;;;36.02;25.02;100257.72;5075530;27;97608;-77
2022/07/21 10:33:41;;;;;;;11.30;8.63;;;;;;;35.97;23.32;100241.16;5065418;27;101474;-84
2022/07/21 10:36:08;;;;;;;10.00;9.20;;;;;;;36.09;23.14;100261.28;5066128;27;97419;-85
2022/07/21 10:38:35;;;;;;;8.93;8.18;;;;;;;36.08;23.06;100256.88;5046573;27;96907;-84
2022/07/21 10:41:03;;;;;;;8.50;7.90;;;;;;;36.03;23.43;100271.16;5016492;27;101482;-87
2022/07/21 10:43:28;;;;;;;10.60;7.95;;;;;;;35.94;23.12;100260.72;5030786;27;101394;-84
2022/07/21 10:45:54;;;;;;;8.68;7.90;;;;;;;35.84;24.07;100258.47;5016770;28;96991;-88
2022/07/21 10:48:41;;;;;;;9.00;8.15;;;;;;;35.51;25.80;100264.91;5003867;28;98362;-85
2022/07/21 10:51:09;;;;;;;9.68;8.85;;;;;;;35.61;23.36;100261.75;5013799;28;101173;-81
2022/07/21 10:53:34;;;;;;;8.45;7.72;;;;;;;35.50;24.36;100260.50;5012158;28;100965;-81
2022/07/21 10:56:00;;;;;;;8.60;8.07;;;;;;;35.43;25.51;100242.47;4991690;28;97476;-83
2022/07/21 10:58:40;;;;;;;11.38;8.77;;;;;;;35.40;24.19;100257.41;4994534;28;97177;-82
2022/07/21 11:01:14;;;;;;;9.38;8.02;;;;;;;35.51;24.15;100266.81;4994301;28;101497;-82
2022/07/21 11:03:42;;;;;;;9.30;8.43;;;;;;;35.51;24.59;100264.06;5004898;28;101524;-81
2022/07/21 11:06:17;;;;;;;9.30;8.45;;;;;;;35.54;24.76;100259.00;5001315;28;97879;-82
2022/07/21 11:08:43;;;;;;;9.32;8.50;;;;;;;35.56;24.35;100253.38;5022521;28;97512;-84
2022/07/21 11:11:13;;;;;;;11.40;8.45;;;;;;;35.58;24.54;100251.28;5015728;28;101133;-83